Terminal Aerodrome Forecast
Issued by NWS

Current Version | Previous Version | Text Only | Print | Product List | Glossary On
Versions: 1 2 3 4 5 6 7 8 9 10 11 12 13 14 15 16 17 18 19 20 21 22 23 24 25
000
FTUS41 KCTP 241739
TAFLNS
TAF
KLNS 241739Z 2418/2518 18007G15KT P6SM FEW050 SCT250
     FM250000 17007KT P6SM SCT040
     FM250800 16005KT P6SM VCSH OVC020
     FM251500 15009G15KT 6SM BR VCSH OVC009
     FM251700 17010G22KT 2SM -TSRA OVC012CB=

USA.gov is the U.S. government's official web portal to all federal, state and local government web resources and services.